createdAt,value
2022-12-16T00:01:19.367Z,0.40
2022-12-16T00:04:20.956Z,0.55
2022-12-16T00:07:22.509Z,0.32
2022-12-16T00:10:24.068Z,0.30
2022-12-16T00:13:26.004Z,0.40
2022-12-16T00:16:27.627Z,0.32
2022-12-16T00:19:29.177Z,0.32
2022-12-16T00:22:30.830Z,0.30
2022-12-16T00:25:32.417Z,0.38
2022-12-16T00:28:34.309Z,0.30
2022-12-16T00:31:35.874Z,0.40
2022-12-16T00:34:37.444Z,0.30
2022-12-16T00:37:38.942Z,0.40
2022-12-16T00:40:40.871Z,0.20
2022-12-16T00:43:42.407Z,0.35
2022-12-16T00:46:43.952Z,0.30
2022-12-16T00:49:45.477Z,0.30
2022-12-16T00:52:48.203Z,0.38
2022-12-16T00:55:49.774Z,0.40
2022-12-16T00:58:52.155Z,0.28
2022-12-16T01:01:53.788Z,0.40
2022-12-16T01:04:57.009Z,0.40
2022-12-16T01:07:58.747Z,0.40
2022-12-16T01:11:00.326Z,0.43
2022-12-16T01:14:01.883Z,0.30
2022-12-16T01:17:03.391Z,0.30
2022-12-16T01:20:05.570Z,0.40
2022-12-16T01:23:07.309Z,0.40
2022-12-16T01:26:15.509Z,0.40
2022-12-16T01:29:17.044Z,0.40
2022-12-16T01:32:18.597Z,0.35
2022-12-16T01:35:51.494Z,0.40
2022-12-16T01:38:44.440Z,0.30
2022-12-16T01:41:46.252Z,0.40
2022-12-16T01:44:51.907Z,0.40
2022-12-16T01:47:57.567Z,0.40
2022-12-16T01:51:06.000Z,0.30
2022-12-16T01:54:42.675Z,0.30
2022-12-16T01:57:55.352Z,0.50
2022-12-16T02:00:57.141Z,0.50
2022-12-16T02:04:01.901Z,0.40
2022-12-16T02:07:03.482Z,0.50
2022-12-16T02:10:05.660Z,0.50
2022-12-16T02:13:17.395Z,0.40
2022-12-16T02:16:24.791Z,0.30
2022-12-16T02:19:42.519Z,0.30
2022-12-16T02:23:05.132Z,0.40
2022-12-16T02:26:09.727Z,0.40
2022-12-16T02:29:48.468Z,0.30
2022-12-16T02:33:22.334Z,0.43
2022-12-16T02:37:02.708Z,0.60
2022-12-16T02:40:11.125Z,0.60
2022-12-16T02:43:32.252Z,0.77
2022-12-16T02:46:40.112Z,0.50
2022-12-16T02:49:44.495Z,0.65
2022-12-16T02:52:46.558Z,0.50
2022-12-16T02:56:12.259Z,0.43
2022-12-16T02:59:24.522Z,0.60
2022-12-16T03:02:35.409Z,0.50
2022-12-16T03:05:42.178Z,0.30
2022-12-16T03:08:49.396Z,0.30
2022-12-16T03:11:54.310Z,0.47
2022-12-16T03:14:56.135Z,0.40
2022-12-16T03:18:00.120Z,0.50
2022-12-16T03:21:08.044Z,0.80
2022-12-16T03:24:13.803Z,0.50
2022-12-16T03:27:34.140Z,0.50
2022-12-16T03:30:40.615Z,0.60
2022-12-16T03:33:51.406Z,0.40
2022-12-16T03:36:57.558Z,0.40
2022-12-16T03:40:03.627Z,0.40
2022-12-16T03:43:06.892Z,0.50
2022-12-16T03:46:09.933Z,0.50
2022-12-16T03:49:11.463Z,0.50
2022-12-16T03:52:13.067Z,0.50
2022-12-16T03:55:14.596Z,0.40
2022-12-16T03:58:16.104Z,0.40
2022-12-16T04:01:17.814Z,0.40
2022-12-16T04:04:19.600Z,0.30
2022-12-16T04:07:21.194Z,0.40
2022-12-16T04:10:42.702Z,0.30
2022-12-16T04:14:03.098Z,0.40
2022-12-16T04:17:24.455Z,0.40
2022-12-16T04:20:52.164Z,0.50
2022-12-16T04:24:16.568Z,0.50
2022-12-16T04:27:27.893Z,0.40
2022-12-16T04:30:34.848Z,0.45
2022-12-16T04:33:55.771Z,0.40
2022-12-16T04:37:18.868Z,0.40
2022-12-16T04:40:38.760Z,0.50
2022-12-16T04:43:59.144Z,0.40
2022-12-16T04:47:19.447Z,0.25
2022-12-16T04:50:39.527Z,0.30
2022-12-16T04:53:59.387Z,0.30
2022-12-16T04:57:19.421Z,0.35
2022-12-16T05:00:40.206Z,0.40
2022-12-16T05:04:00.459Z,0.47
2022-12-16T05:07:20.627Z,0.47
2022-12-16T05:10:40.564Z,0.45
2022-12-16T05:14:00.583Z,0.40
2022-12-16T05:17:20.882Z,0.40
2022-12-16T05:20:40.964Z,0.40
2022-12-16T05:24:01.216Z,0.40
2022-12-16T05:27:21.160Z,0.40
2022-12-16T05:30:41.502Z,0.30
2022-12-16T05:34:01.627Z,0.40
2022-12-16T05:37:21.408Z,0.40
2022-12-16T05:40:41.570Z,0.45
2022-12-16T05:44:01.506Z,0.50
2022-12-16T05:47:21.522Z,0.80
2022-12-16T05:50:41.782Z,0.60
2022-12-16T05:54:01.686Z,0.65
2022-12-16T05:57:22.084Z,0.60
2022-12-16T06:00:42.432Z,0.52
2022-12-16T06:04:02.876Z,0.50
2022-12-16T06:07:23.147Z,0.65
2022-12-16T06:10:42.928Z,0.40
2022-12-16T06:14:02.783Z,0.40
2022-12-16T06:17:22.825Z,0.50
2022-12-16T06:20:43.275Z,0.50
2022-12-16T06:24:03.199Z,0.50
2022-12-16T06:27:23.476Z,0.60
2022-12-16T06:30:43.227Z,0.55
2022-12-16T06:34:03.040Z,0.45
2022-12-16T06:37:22.842Z,0.47
2022-12-16T06:40:42.831Z,0.40
2022-12-16T06:44:02.662Z,0.43
2022-12-16T06:47:23.148Z,0.40
2022-12-16T06:50:45.059Z,0.40
2022-12-16T06:54:05.396Z,0.50
2022-12-16T06:57:25.458Z,0.38
2022-12-16T07:00:45.529Z,0.50
2022-12-16T07:04:05.646Z,0.70
2022-12-16T07:07:25.763Z,0.50
2022-12-16T07:10:45.736Z,0.70
2022-12-16T07:14:05.794Z,0.77
2022-12-16T07:17:25.803Z,0.70
2022-12-16T07:20:45.580Z,0.90
2022-12-16T07:24:05.372Z,0.65
2022-12-16T07:27:25.284Z,0.95
2022-12-16T07:30:45.413Z,1.00
2022-12-16T07:34:05.924Z,0.85
2022-12-16T07:37:26.255Z,0.60
2022-12-16T07:40:46.633Z,0.80
2022-12-16T07:44:06.669Z,0.80
2022-12-16T07:47:26.593Z,0.70
2022-12-16T07:50:46.740Z,0.70
2022-12-16T07:54:06.562Z,0.80
2022-12-16T07:57:26.417Z,0.70
2022-12-16T08:00:46.373Z,1.40
2022-12-16T08:04:06.476Z,1.20
2022-12-16T08:07:26.380Z,0.82
2022-12-16T08:10:46.807Z,0.80
2022-12-16T08:14:06.623Z,1.05
2022-12-16T08:17:26.662Z,0.70
2022-12-16T08:20:46.512Z,0.88
2022-12-16T08:24:06.577Z,0.82
2022-12-16T08:27:26.443Z,0.77
2022-12-16T08:30:46.237Z,0.73
2022-12-16T08:34:06.100Z,0.60
2022-12-16T08:37:26.767Z,0.60
2022-12-16T08:40:46.696Z,0.93
2022-12-16T08:44:06.544Z,0.60
2022-12-16T08:47:26.329Z,0.93
2022-12-16T08:50:46.540Z,0.90
2022-12-16T08:54:06.412Z,0.70
2022-12-16T08:57:26.367Z,0.93
2022-12-16T09:00:46.259Z,0.75
2022-12-16T09:04:06.391Z,0.75
2022-12-16T09:07:26.606Z,0.80
2022-12-16T09:10:47.177Z,1.10
2022-12-16T09:14:07.034Z,1.25
2022-12-16T09:17:26.910Z,1.00
2022-12-16T09:20:46.736Z,1.08
2022-12-16T09:24:06.533Z,1.10
2022-12-16T09:27:26.331Z,0.90
2022-12-16T09:30:46.504Z,0.80
2022-12-16T09:34:06.299Z,0.85
2022-12-16T09:37:26.174Z,0.80
2022-12-16T09:40:46.154Z,0.70
2022-12-16T09:44:13.431Z,0.47
2022-12-16T09:48:18.523Z,0.50
2022-12-16T09:51:39.013Z,0.40
2022-12-16T09:55:04.499Z,0.55
2022-12-16T09:58:25.994Z,0.40
2022-12-16T10:01:55.909Z,0.40
2022-12-16T10:05:16.462Z,0.47
2022-12-16T10:09:08.544Z,0.40
2022-12-16T10:12:53.959Z,0.38
2022-12-16T10:16:19.380Z,0.50
2022-12-16T10:19:55.135Z,0.50
2022-12-16T10:23:25.232Z,0.75
2022-12-16T10:27:15.659Z,0.60
2022-12-16T10:30:35.749Z,0.55
2022-12-16T10:33:56.279Z,0.45
2022-12-16T10:37:20.909Z,0.30
2022-12-16T10:40:49.092Z,0.50
2022-12-16T10:44:12.605Z,0.65
2022-12-16T10:47:32.994Z,0.38
2022-12-16T10:50:52.791Z,0.50
2022-12-16T10:54:13.387Z,0.50
2022-12-16T10:57:47.069Z,0.50
2022-12-16T11:01:10.176Z,0.50
2022-12-16T11:04:55.905Z,0.50
2022-12-16T11:08:16.502Z,0.40
2022-12-16T11:11:39.416Z,0.40
2022-12-16T11:18:51.707Z,0.50
2022-12-16T11:22:25.955Z,0.50
2022-12-16T11:25:46.212Z,0.43
2022-12-16T11:29:21.775Z,0.50
2022-12-16T11:32:45.747Z,0.40
2022-12-16T11:36:12.692Z,0.40
2022-12-16T11:39:55.330Z,0.60
2022-12-16T11:43:17.227Z,0.68
2022-12-16T11:46:48.031Z,0.50
2022-12-16T11:50:10.040Z,0.60
2022-12-16T11:54:06.743Z,0.70
2022-12-16T11:57:40.087Z,0.50
2022-12-16T12:01:11.108Z,0.60
2022-12-16T12:04:31.727Z,0.60
2022-12-16T12:08:11.339Z,0.40
2022-12-16T12:11:51.203Z,0.50
2022-12-16T12:15:17.599Z,0.60
2022-12-16T12:18:57.307Z,0.70
2022-12-16T12:22:21.368Z,0.77
2022-12-16T12:25:49.412Z,0.70
2022-12-16T12:29:33.610Z,0.55
2022-12-16T12:33:19.363Z,0.60
2022-12-16T12:36:55.020Z,0.63
2022-12-16T12:40:40.704Z,0.60
2022-12-16T12:44:36.944Z,0.60
2022-12-16T12:48:57.491Z,0.60
2022-12-16T12:52:34.400Z,0.70
2022-12-16T12:55:59.203Z,0.60
2022-12-16T12:59:30.716Z,0.60
2022-12-16T13:03:08.437Z,0.60
2022-12-16T13:06:32.703Z,0.60
2022-12-16T13:09:54.154Z,0.55
2022-12-16T13:13:53.762Z,0.60
2022-12-16T13:17:23.430Z,0.50
2022-12-16T13:20:55.345Z,0.50
2022-12-16T13:24:39.411Z,0.55
2022-12-16T13:28:13.032Z,0.60
2022-12-16T13:31:33.396Z,0.40
2022-12-16T13:34:53.599Z,0.60
2022-12-16T13:38:23.635Z,0.60
2022-12-16T13:41:43.592Z,0.68
2022-12-16T13:45:03.600Z,0.57
2022-12-16T13:48:44.091Z,0.77
2022-12-16T13:52:33.431Z,0.68
2022-12-16T13:55:59.443Z,0.70
2022-12-16T13:59:25.341Z,0.50
2022-12-16T14:02:50.869Z,0.70
2022-12-16T14:06:13.560Z,0.60
2022-12-16T14:09:51.322Z,0.40
2022-12-16T14:13:17.538Z,0.60
2022-12-16T14:16:43.508Z,0.50
2022-12-16T14:20:32.688Z,0.40
2022-12-16T14:24:13.142Z,0.70
2022-12-16T14:27:39.189Z,0.40
2022-12-16T14:30:59.578Z,0.50
2022-12-16T14:34:23.199Z,0.40
2022-12-16T14:37:53.608Z,0.45
2022-12-16T14:41:13.532Z,0.50
2022-12-16T14:44:39.650Z,0.40
2022-12-16T14:47:59.611Z,0.50
2022-12-16T14:51:36.069Z,0.57
2022-12-16T14:55:02.316Z,0.55
2022-12-16T14:58:36.189Z,0.50
2022-12-16T15:01:56.720Z,0.60
2022-12-16T15:05:17.294Z,0.55
2022-12-16T15:08:38.163Z,0.70
2022-12-16T15:12:00.052Z,0.50
2022-12-16T15:15:24.425Z,0.50
2022-12-16T15:18:52.318Z,0.52
2022-12-16T15:22:12.709Z,0.43
2022-12-16T15:25:43.795Z,0.50
2022-12-16T15:29:04.272Z,0.60
2022-12-16T15:32:47.029Z,0.50
2022-12-16T15:36:07.065Z,0.38
2022-12-16T15:39:39.264Z,0.45
2022-12-16T15:42:59.377Z,0.40
2022-12-16T15:46:20.392Z,0.50
2022-12-16T15:49:45.560Z,0.40
2022-12-16T15:53:05.529Z,0.35
2022-12-16T15:56:40.121Z,0.50
2022-12-16T16:00:14.156Z,0.50
2022-12-16T16:04:07.090Z,0.60
2022-12-16T16:07:34.886Z,0.50
2022-12-16T16:10:55.037Z,0.40
2022-12-16T16:14:15.130Z,0.50
2022-12-16T16:17:42.442Z,0.40
2022-12-16T16:21:03.333Z,0.50
2022-12-16T16:24:24.018Z,0.60
2022-12-16T16:27:47.067Z,0.50
2022-12-16T16:31:06.925Z,0.50
2022-12-16T16:34:27.795Z,0.70
2022-12-16T16:37:47.714Z,0.60
2022-12-16T16:41:07.549Z,0.60
2022-12-16T16:44:27.575Z,0.70
2022-12-16T16:47:47.866Z,0.50
2022-12-16T16:51:08.125Z,0.43
2022-12-16T16:54:28.562Z,0.45
2022-12-16T16:57:53.031Z,0.50
2022-12-16T17:01:13.731Z,0.40
2022-12-16T17:04:34.013Z,0.35
2022-12-16T17:07:54.236Z,0.50
2022-12-16T17:11:14.289Z,0.47
2022-12-16T17:14:39.201Z,0.50
2022-12-16T17:17:59.233Z,0.55
2022-12-16T17:21:19.772Z,0.60
2022-12-16T17:24:53.910Z,0.52
2022-12-16T17:28:14.471Z,1.00
2022-12-16T17:31:54.251Z,2.38
2022-12-16T17:35:14.992Z,1.10
2022-12-16T17:38:35.160Z,1.10
2022-12-16T17:41:55.240Z,0.80
2022-12-16T17:45:15.329Z,0.70
2022-12-16T17:48:35.715Z,0.70
2022-12-16T17:51:56.134Z,0.60
2022-12-16T17:55:16.383Z,0.60
2022-12-16T17:58:36.211Z,0.60
2022-12-16T18:01:56.779Z,0.50
2022-12-16T18:05:17.124Z,0.47
2022-12-16T18:08:37.492Z,0.57
2022-12-16T18:11:58.860Z,0.40
2022-12-16T18:15:18.769Z,0.50
2022-12-16T18:18:44.451Z,0.32
2022-12-16T18:22:06.076Z,0.52
2022-12-16T18:25:26.562Z,0.47
2022-12-16T18:28:46.563Z,0.47
2022-12-16T18:32:07.895Z,0.45
2022-12-16T18:35:27.892Z,0.40
2022-12-16T18:38:47.812Z,0.40
2022-12-16T18:42:08.168Z,0.40
2022-12-16T18:45:28.800Z,0.43
2022-12-16T18:48:49.101Z,0.47
2022-12-16T18:52:09.068Z,0.45
2022-12-16T18:55:29.615Z,0.40
2022-12-16T18:58:51.647Z,0.40
2022-12-16T19:02:12.228Z,0.50
2022-12-16T19:05:32.727Z,0.50
2022-12-16T19:08:52.778Z,0.50
2022-12-16T19:12:12.598Z,0.60
2022-12-16T19:15:34.392Z,0.50
2022-12-16T19:18:57.953Z,0.50
2022-12-16T19:22:17.724Z,0.40
2022-12-16T19:25:40.691Z,0.45
2022-12-16T19:29:01.015Z,0.50
2022-12-16T19:32:21.351Z,0.50
2022-12-16T19:35:58.075Z,0.57
2022-12-16T19:39:18.127Z,0.40
2022-12-16T19:42:38.120Z,0.40
2022-12-16T19:45:58.143Z,0.43
2022-12-16T19:49:18.587Z,0.50
2022-12-16T19:52:38.636Z,0.40
2022-12-16T19:55:58.632Z,0.40
2022-12-16T19:59:18.986Z,0.32
2022-12-16T20:02:39.437Z,0.43
2022-12-16T20:05:59.668Z,0.38
2022-12-16T20:09:19.905Z,0.43
2022-12-16T20:12:40.527Z,0.30
2022-12-16T20:16:00.422Z,0.40
2022-12-16T20:19:20.691Z,0.40
2022-12-16T20:22:40.545Z,0.38
2022-12-16T20:26:00.701Z,0.40
2022-12-16T20:29:21.172Z,0.40
2022-12-16T20:32:41.215Z,0.45
2022-12-16T20:36:01.113Z,0.43
2022-12-16T20:39:24.815Z,0.47
2022-12-16T20:42:45.588Z,0.40
2022-12-16T20:46:05.544Z,0.40
2022-12-16T20:49:25.552Z,0.50
2022-12-16T20:52:46.170Z,0.40
2022-12-16T20:56:06.099Z,0.30
2022-12-16T20:59:25.982Z,0.50
2022-12-16T21:02:46.202Z,0.60
2022-12-16T21:06:06.535Z,0.55
2022-12-16T21:09:27.035Z,0.70
2022-12-16T21:12:46.954Z,0.50
2022-12-16T21:16:06.835Z,0.70
2022-12-16T21:19:31.241Z,0.50
2022-12-16T21:22:53.738Z,0.50
2022-12-16T21:26:29.747Z,0.50
2022-12-16T21:29:49.932Z,0.40
2022-12-16T21:33:09.800Z,0.50
2022-12-16T21:36:30.265Z,0.50
2022-12-16T21:39:50.230Z,0.40
2022-12-16T21:43:10.317Z,0.43
2022-12-16T21:46:30.228Z,0.50
2022-12-16T21:49:50.140Z,0.40
2022-12-16T21:53:10.286Z,0.47
2022-12-16T21:56:30.288Z,0.50
2022-12-16T21:59:50.170Z,0.50
2022-12-16T22:03:10.108Z,0.40
2022-12-16T22:06:30.367Z,0.60
2022-12-16T22:09:50.384Z,0.50
2022-12-16T22:13:10.283Z,0.68
2022-12-16T22:16:30.293Z,0.50
2022-12-16T22:19:53.173Z,0.60
2022-12-16T22:23:16.172Z,0.50
2022-12-16T22:26:36.273Z,0.55
2022-12-16T22:29:56.594Z,0.40
2022-12-16T22:33:16.739Z,0.43
2022-12-16T22:36:36.640Z,0.43
2022-12-16T22:39:56.502Z,0.40
2022-12-16T22:43:16.972Z,0.40
2022-12-16T22:46:36.950Z,0.50
2022-12-16T22:49:57.169Z,0.50
2022-12-16T22:53:17.103Z,1.10
2022-12-16T22:56:50.679Z,0.65
2022-12-16T23:00:11.939Z,0.50
2022-12-16T23:03:36.563Z,0.47
2022-12-16T23:06:56.622Z,0.50
2022-12-16T23:10:16.583Z,0.40
2022-12-16T23:13:36.609Z,0.40
2022-12-16T23:16:56.614Z,0.88
2022-12-16T23:20:16.542Z,0.60
2022-12-16T23:23:36.807Z,0.60
2022-12-16T23:26:57.375Z,0.50
2022-12-16T23:30:17.416Z,0.47
2022-12-16T23:33:37.611Z,0.40
2022-12-16T23:36:58.015Z,0.43
2022-12-16T23:40:18.116Z,0.30
2022-12-16T23:43:38.298Z,0.30
2022-12-16T23:46:58.425Z,0.40
2022-12-16T23:50:18.535Z,0.43
2022-12-16T23:53:39.031Z,0.50
2022-12-16T23:56:59.519Z,0.50
